URO1AC LEMD-LETL
Flight info
| Callsign | URO1AC |
|---|---|
| Flight time | 0h 25m |
| Altitude | 16000 |
| Route | NANDO |
| Aircraft | A346/H-SDE2E3FGHIJ3J4J5M1RWXY/LB1D1 |
Departure
| Time | 2026-05-07 17:25 |
|---|---|
| Airport | Adolfo Suárez Madrid–Barajas Airport (LEMD) |
Arrival
| Time | 2026-05-07 17:50 |
|---|---|
| Airport | Teruel Airport (LETL) |
| Time | Latitude | Longitude | Altitude | Speed | Heading |
|---|---|---|---|---|---|
| 2026-05-07 16:59 | 40.46032 | -3.56221 | 1971 ft | 0 kts | 0° |
| 2026-05-07 17:15 | 40.46041 | -3.56222 | 1971 ft | 6 kts | 348° |
| 2026-05-07 17:16 | 40.46085 | -3.56251 | 1964 ft | 7 kts | 324° |
| 2026-05-07 17:16 | 40.46108 | -3.56314 | 1976 ft | 8 kts | 278° |
| 2026-05-07 17:16 | 40.46116 | -3.56387 | 1979 ft | 8 kts | 273° |
| 2026-05-07 17:16 | 40.46117 | -3.56463 | 1981 ft | 8 kts | 286° |
| 2026-05-07 17:17 | 40.46153 | -3.56502 | 1980 ft | 8 kts | 343° |
| 2026-05-07 17:17 | 40.46210 | -3.56518 | 1980 ft | 9 kts | 7° |
| 2026-05-07 17:17 | 40.46324 | -3.56500 | 1981 ft | 25 kts | 4° |
| 2026-05-07 17:17 | 40.46526 | -3.56485 | 1981 ft | 30 kts | 3° |
| 2026-05-07 17:18 | 40.46735 | -3.56470 | 1985 ft | 30 kts | 3° |
| 2026-05-07 17:18 | 40.46941 | -3.56456 | 1986 ft | 30 kts | 2° |
| 2026-05-07 17:18 | 40.47128 | -3.56516 | 1988 ft | 26 kts | 335° |
| 2026-05-07 17:18 | 40.47280 | -3.56645 | 1995 ft | 26 kts | 322° |
| 2026-05-07 17:19 | 40.47428 | -3.56793 | 2001 ft | 21 kts | 323° |
| 2026-05-07 17:19 | 40.47566 | -3.56933 | 2003 ft | 31 kts | 322° |
| 2026-05-07 17:19 | 40.47733 | -3.57104 | 2005 ft | 30 kts | 322° |
| 2026-05-07 17:19 | 40.47891 | -3.57265 | 2008 ft | 28 kts | 322° |
| 2026-05-07 17:20 | 40.48050 | -3.57427 | 2008 ft | 30 kts | 322° |
| 2026-05-07 17:20 | 40.48220 | -3.57599 | 2003 ft | 31 kts | 322° |
| 2026-05-07 17:20 | 40.48400 | -3.57772 | 2001 ft | 33 kts | 325° |
| 2026-05-07 17:20 | 40.48594 | -3.57913 | 2006 ft | 30 kts | 337° |
| 2026-05-07 17:21 | 40.48731 | -3.57906 | 2003 ft | 18 kts | 43° |
| 2026-05-07 17:21 | 40.48763 | -3.57668 | 2000 ft | 31 kts | 91° |
| 2026-05-07 17:21 | 40.48766 | -3.57382 | 1998 ft | 32 kts | 90° |
| 2026-05-07 17:21 | 40.48766 | -3.57078 | 1992 ft | 34 kts | 90° |
| 2026-05-07 17:22 | 40.48767 | -3.56790 | 1987 ft | 19 kts | 89° |
| 2026-05-07 17:22 | 40.48769 | -3.56600 | 1983 ft | 22 kts | 89° |
| 2026-05-07 17:22 | 40.48769 | -3.56375 | 1977 ft | 26 kts | 91° |
| 2026-05-07 17:22 | 40.48794 | -3.56162 | 1968 ft | 16 kts | 24° |
| 2026-05-07 17:23 | 40.48922 | -3.56140 | 1967 ft | 23 kts | 2° |
| 2026-05-07 17:23 | 40.49044 | -3.56139 | 1967 ft | 29 kts | 359° |
| 2026-05-07 17:23 | 40.49257 | -3.56142 | 1967 ft | 20 kts | 359° |
| 2026-05-07 17:23 | 40.49352 | -3.56139 | 1969 ft | 19 kts | 13° |
| 2026-05-07 17:24 | 40.49416 | -3.56016 | 1969 ft | 4 kts | 63° |
| 2026-05-07 17:24 | 40.49436 | -3.55973 | 1960 ft | 8 kts | 55° |
| 2026-05-07 17:24 | 40.49486 | -3.55824 | 1976 ft | 24 kts | 104° |
| 2026-05-07 17:24 | 40.49334 | -3.55631 | 1964 ft | 69 kts | 143° |
| 2026-05-07 17:25 | 40.48779 | -3.55069 | 1959 ft | 130 kts | 142° |
| 2026-05-07 17:25 | 40.47912 | -3.54190 | 1967 ft | 178 kts | 139° |
| 2026-05-07 17:25 | 40.46905 | -3.53150 | 2451 ft | 189 kts | 141° |
| 2026-05-07 17:25 | 40.45859 | -3.52080 | 3176 ft | 191 kts | 141° |
| 2026-05-07 17:26 | 40.44809 | -3.50987 | 3902 ft | 194 kts | 142° |
| 2026-05-07 17:26 | 40.43727 | -3.49842 | 4337 ft | 208 kts | 137° |
| 2026-05-07 17:26 | 40.42739 | -3.48352 | 4759 ft | 224 kts | 124° |
| 2026-05-07 17:26 | 40.41987 | -3.46486 | 5120 ft | 243 kts | 114° |
| 2026-05-07 17:27 | 40.41297 | -3.44336 | 5522 ft | 264 kts | 112° |
| 2026-05-07 17:27 | 40.40593 | -3.42071 | 6187 ft | 273 kts | 113° |
| 2026-05-07 17:27 | 40.39857 | -3.39733 | 7057 ft | 276 kts | 113° |
| 2026-05-07 17:27 | 40.39117 | -3.37413 | 7954 ft | 279 kts | 114° |
| 2026-05-07 17:28 | 40.38352 | -3.35047 | 8840 ft | 283 kts | 114° |
| 2026-05-07 17:28 | 40.37572 | -3.32651 | 9747 ft | 287 kts | 114° |
| 2026-05-07 17:28 | 40.36774 | -3.30218 | 10547 ft | 293 kts | 114° |
| 2026-05-07 17:28 | 40.35942 | -3.27687 | 11092 ft | 310 kts | 114° |
| 2026-05-07 17:29 | 40.35069 | -3.25040 | 11584 ft | 328 kts | 114° |
| 2026-05-07 17:29 | 40.34132 | -3.22202 | 12069 ft | 347 kts | 114° |
| 2026-05-07 17:29 | 40.33150 | -3.19229 | 12638 ft | 362 kts | 114° |
| 2026-05-07 17:29 | 40.32136 | -3.16161 | 13486 ft | 367 kts | 114° |
| 2026-05-07 17:30 | 40.31122 | -3.13095 | 14340 ft | 372 kts | 114° |
| 2026-05-07 17:30 | 40.30078 | -3.09942 | 15138 ft | 377 kts | 114° |
| 2026-05-07 17:30 | 40.29022 | -3.06755 | 15905 ft | 383 kts | 115° |
| 2026-05-07 17:30 | 40.27963 | -3.03564 | 16667 ft | 389 kts | 115° |
| 2026-05-07 17:31 | 40.26868 | -3.00271 | 17440 ft | 395 kts | 115° |
| 2026-05-07 17:31 | 40.25758 | -2.96935 | 18209 ft | 400 kts | 115° |
| 2026-05-07 17:31 | 40.24633 | -2.93562 | 18820 ft | 406 kts | 115° |
| 2026-05-07 17:31 | 40.23503 | -2.90181 | 18928 ft | 411 kts | 115° |
| 2026-05-07 17:32 | 40.22354 | -2.86742 | 18791 ft | 406 kts | 115° |
| 2026-05-07 17:32 | 40.21217 | -2.83343 | 18246 ft | 405 kts | 115° |
| 2026-05-07 17:32 | 40.20094 | -2.79996 | 17665 ft | 404 kts | 115° |
| 2026-05-07 17:32 | 40.18964 | -2.76625 | 17176 ft | 400 kts | 115° |
| 2026-05-07 17:33 | 40.17857 | -2.73329 | 16685 ft | 396 kts | 115° |
| 2026-05-07 17:33 | 40.16747 | -2.70028 | 16192 ft | 393 kts | 115° |
| 2026-05-07 17:33 | 40.15651 | -2.66772 | 15955 ft | 390 kts | 115° |
| 2026-05-07 17:33 | 40.14555 | -2.63521 | 15940 ft | 391 kts | 115° |
| 2026-05-07 17:34 | 40.13454 | -2.60257 | 15937 ft | 392 kts | 115° |
| 2026-05-07 17:34 | 40.12353 | -2.57000 | 15800 ft | 390 kts | 115° |
| 2026-05-07 17:34 | 40.11254 | -2.53747 | 15783 ft | 391 kts | 115° |
| 2026-05-07 17:34 | 40.10153 | -2.50497 | 15540 ft | 390 kts | 115° |
| 2026-05-07 17:35 | 40.09057 | -2.47262 | 15290 ft | 388 kts | 115° |
| 2026-05-07 17:35 | 40.07965 | -2.44044 | 15040 ft | 386 kts | 115° |
| 2026-05-07 17:35 | 40.06875 | -2.40839 | 14790 ft | 385 kts | 115° |
| 2026-05-07 17:35 | 40.05790 | -2.37647 | 14547 ft | 383 kts | 115° |
| 2026-05-07 17:36 | 40.04709 | -2.34473 | 14307 ft | 382 kts | 115° |
| 2026-05-07 17:36 | 40.03632 | -2.31313 | 14068 ft | 380 kts | 115° |
| 2026-05-07 17:36 | 40.02555 | -2.28158 | 13830 ft | 379 kts | 115° |
| 2026-05-07 17:36 | 40.01483 | -2.25023 | 13569 ft | 377 kts | 115° |
| 2026-05-07 17:37 | 40.00413 | -2.21899 | 13303 ft | 376 kts | 115° |
| 2026-05-07 17:37 | 39.99346 | -2.18783 | 13039 ft | 374 kts | 115° |
| 2026-05-07 17:37 | 39.98397 | -2.15637 | 12749 ft | 373 kts | 105° |
| 2026-05-07 17:37 | 39.98208 | -2.12271 | 12487 ft | 373 kts | 85° |
| 2026-05-07 17:38 | 39.98867 | -2.09056 | 12231 ft | 372 kts | 65° |
| 2026-05-07 17:38 | 40.00300 | -2.06261 | 11976 ft | 370 kts | 46° |
| 2026-05-07 17:38 | 40.02330 | -2.04236 | 11711 ft | 367 kts | 27° |
| 2026-05-07 17:38 | 40.04689 | -2.02966 | 11480 ft | 366 kts | 21° |
| 2026-05-07 17:39 | 40.06959 | -2.01486 | 11226 ft | 364 kts | 34° |
| 2026-05-07 17:39 | 40.08804 | -1.99244 | 10963 ft | 362 kts | 51° |
| 2026-05-07 17:39 | 40.10338 | -1.96643 | 10719 ft | 361 kts | 53° |
| 2026-05-07 17:39 | 40.11820 | -1.94000 | 10477 ft | 359 kts | 54° |
| 2026-05-07 17:40 | 40.13283 | -1.91349 | 10234 ft | 358 kts | 54° |
| 2026-05-07 17:40 | 40.14733 | -1.88708 | 9997 ft | 356 kts | 54° |
| 2026-05-07 17:40 | 40.16174 | -1.86078 | 9817 ft | 355 kts | 54° |
| 2026-05-07 17:40 | 40.17612 | -1.83453 | 9693 ft | 354 kts | 54° |
| 2026-05-07 17:41 | 40.19026 | -1.80870 | 9507 ft | 342 kts | 55° |
| 2026-05-07 17:41 | 40.20388 | -1.78382 | 9351 ft | 330 kts | 55° |
| 2026-05-07 17:41 | 40.21701 | -1.75981 | 9230 ft | 318 kts | 55° |
| 2026-05-07 17:41 | 40.22965 | -1.73666 | 9087 ft | 307 kts | 55° |
| 2026-05-07 17:42 | 40.24188 | -1.71426 | 8949 ft | 297 kts | 55° |
| 2026-05-07 17:42 | 40.25351 | -1.69295 | 8810 ft | 288 kts | 55° |
| 2026-05-07 17:42 | 40.26534 | -1.67125 | 8674 ft | 288 kts | 55° |
| 2026-05-07 17:42 | 40.27680 | -1.65021 | 8544 ft | 287 kts | 55° |
| 2026-05-07 17:43 | 40.28840 | -1.62890 | 8429 ft | 286 kts | 55° |
| 2026-05-07 17:43 | 40.29995 | -1.60765 | 8276 ft | 286 kts | 55° |
| 2026-05-07 17:43 | 40.31148 | -1.58646 | 8165 ft | 285 kts | 55° |
| 2026-05-07 17:43 | 40.32301 | -1.56524 | 8047 ft | 285 kts | 56° |
| 2026-05-07 17:44 | 40.33450 | -1.54409 | 7905 ft | 284 kts | 56° |
| 2026-05-07 17:44 | 40.34593 | -1.52301 | 7764 ft | 284 kts | 56° |
| 2026-05-07 17:44 | 40.35738 | -1.50190 | 7613 ft | 283 kts | 56° |
| 2026-05-07 17:44 | 40.36879 | -1.48084 | 7462 ft | 282 kts | 56° |
| 2026-05-07 17:45 | 40.38013 | -1.45992 | 7264 ft | 279 kts | 56° |
| 2026-05-07 17:45 | 40.39139 | -1.43910 | 6890 ft | 280 kts | 56° |
| 2026-05-07 17:45 | 40.40265 | -1.41827 | 6555 ft | 279 kts | 56° |
| 2026-05-07 17:45 | 40.41385 | -1.39756 | 6235 ft | 277 kts | 57° |
| 2026-05-07 17:46 | 40.42498 | -1.37694 | 5744 ft | 275 kts | 57° |
| 2026-05-07 17:46 | 40.43590 | -1.35670 | 5394 ft | 264 kts | 56° |
| 2026-05-07 17:46 | 40.44617 | -1.33793 | 5194 ft | 250 kts | 56° |
| 2026-05-07 17:46 | 40.45626 | -1.32023 | 4969 ft | 232 kts | 55° |
| 2026-05-07 17:47 | 40.46556 | -1.30470 | 5036 ft | 198 kts | 53° |
| 2026-05-07 17:47 | 40.47386 | -1.29169 | 5055 ft | 175 kts | 52° |
| 2026-05-07 17:47 | 40.48178 | -1.27997 | 4884 ft | 169 kts | 54° |
| 2026-05-07 17:47 | 40.48838 | -1.26754 | 4651 ft | 164 kts | 66° |
| 2026-05-07 17:48 | 40.49270 | -1.25371 | 4388 ft | 163 kts | 81° |
| 2026-05-07 17:48 | 40.49322 | -1.23905 | 4233 ft | 160 kts | 106° |
| 2026-05-07 17:48 | 40.48846 | -1.22632 | 4118 ft | 154 kts | 143° |
| 2026-05-07 17:48 | 40.47894 | -1.22096 | 4063 ft | 151 kts | 179° |
| 2026-05-07 17:49 | 40.46841 | -1.22052 | 3956 ft | 151 kts | 179° |
| 2026-05-07 17:49 | 40.45795 | -1.22008 | 3842 ft | 149 kts | 179° |
| 2026-05-07 17:49 | 40.44767 | -1.21959 | 3663 ft | 146 kts | 178° |
| 2026-05-07 17:49 | 40.43753 | -1.21908 | 3531 ft | 145 kts | 177° |
| 2026-05-07 17:50 | 40.42738 | -1.21841 | 3394 ft | 146 kts | 177° |
| 2026-05-07 17:50 | 40.41777 | -1.21790 | 3356 ft | 117 kts | 179° |
| 2026-05-07 17:50 | 40.41193 | -1.21758 | 3358 ft | 54 kts | 177° |
| 2026-05-07 17:50 | 40.40956 | -1.21745 | 3360 ft | 37 kts | 178° |
| 2026-05-07 17:51 | 40.40708 | -1.21732 | 3372 ft | 33 kts | 178° |
| 2026-05-07 17:51 | 40.40488 | -1.21720 | 3378 ft | 30 kts | 178° |
| 2026-05-07 17:51 | 40.40282 | -1.21709 | 3383 ft | 34 kts | 177° |
| 2026-05-07 17:51 | 40.40066 | -1.21656 | 3383 ft | 31 kts | 150° |
| 2026-05-07 17:52 | 40.39962 | -1.21637 | 3383 ft | 10 kts | 229° |
| 2026-05-07 17:52 | 40.40001 | -1.21679 | 3384 ft | 7 kts | 358° |
| 2026-05-07 17:52 | 40.40162 | -1.21698 | 3379 ft | 41 kts | 355° |
| 2026-05-07 17:52 | 40.40449 | -1.21719 | 3383 ft | 41 kts | 357° |
| 2026-05-07 17:53 | 40.40736 | -1.21734 | 3371 ft | 41 kts | 358° |
| 2026-05-07 17:53 | 40.41031 | -1.21749 | 3359 ft | 43 kts | 357° |
| 2026-05-07 17:53 | 40.41267 | -1.21765 | 3358 ft | 22 kts | 354° |
| 2026-05-07 17:53 | 40.41325 | -1.21784 | 3364 ft | 11 kts | 332° |
| 2026-05-07 17:54 | 40.41354 | -1.21843 | 3360 ft | 0 kts | 272° |
| 2026-05-07 17:54 | 40.41362 | -1.21953 | 3360 ft | 18 kts | 272° |
| 2026-05-07 17:54 | 40.41360 | -1.22119 | 3361 ft | 13 kts | 267° |
| 2026-05-07 17:54 | 40.41359 | -1.22125 | 3361 ft | 0 kts | 266° |
| 2026-05-07 17:55 | 40.41359 | -1.22126 | 3361 ft | 0 kts | 266° |
| 2026-05-07 17:59 | 40.41359 | -1.22133 | 3361 ft | 2 kts | 267° |
| 2026-05-07 17:59 | 40.41357 | -1.22199 | 3361 ft | 16 kts | 268° |
| 2026-05-07 18:00 | 40.41354 | -1.22287 | 3361 ft | 0 kts | 268° |
| 2026-05-07 18:00 | 40.41353 | -1.22316 | 3361 ft | 10 kts | 267° |
| 2026-05-07 18:00 | 40.41360 | -1.22444 | 3361 ft | 16 kts | 283° |
| 2026-05-07 18:00 | 40.41425 | -1.22504 | 3368 ft | 0 kts | 11° |
| 2026-05-07 18:01 | 40.41429 | -1.22503 | 3368 ft | 0 kts | 14° |
| 2026-05-07 18:01 | 40.41469 | -1.22491 | 3368 ft | 10 kts | 13° |
| 2026-05-07 18:01 | 40.41530 | -1.22467 | 3366 ft | 0 kts | 19° |
| 2026-05-07 18:01 | 40.41541 | -1.22462 | 3366 ft | 0 kts | 19° |
| 2026-05-07 18:02 | 40.41542 | -1.22461 | 3366 ft | 0 kts | 19° |